Tiempo atmosférico en la estación meteorológica de Villayón, Oneta, Asturias (410 m.)



Fecha
DESCASC
Temp. máxima en grados centígrados (hora)
DESCASC
Temp. mínima en grados centígrados (hora)
DESCASC
Temp. media en grados centígrados
DESCASC
Racha de viento máxima en m/sg (hora)
DESCASC
Velocidad máxima media en intervalos de 10 minutos(hora)
DESCASC
Precipitaciones diarias en mm
DESCASC
Precipitaciones de 00:00 a 06:00 en mm
DESCASC
Precipitaciones de 06:00 a 12:00 en mm
DESCASC
Precipitaciones de 12:00 a 18:00 en mm
DESCASC
Precipitaciones de 18:00 a 24:00 en mm
DESCASC
23-06-2019 21.4 (18:30) 13.8 (06:40) 17.6 6.67 (04:50) 4.72 (04:50) 5.8 3.4 2.4 0 0
22-06-2019 22.1 (13:50) 12.7 (00:40) 17.4 6.39 (16:50) 3.89 (16:50) 0 0 0 0 0
21-06-2019 16.3 (17:20) 11.7 (06:20) 14 9.17 (18:30) 6.67 (18:30) 1.4 0.8 0.6 0 0
20-06-2019 13.9 (13:50) 12.2 (00:00) 13 5.56 (11:30) 3.33 (13:30) 4 0.4 2.2 0.8 0.6
19-06-2019 -- (--) -- (--) -- -- (--) -- (--) -- 0 0 -- 2.8
18-06-2019 24.1 (16:40) 12.1 (00:00) 18.1 10.83 (16:20) 5.83 (16:20) 2 0 0 0 2
17-06-2019 16.9 (14:10) 12.4 (00:00) 14.6 5.56 (15:00) 4.17 (15:00) 0 0 0 0 0
16-06-2019 19.8 (17:10) 10.5 (00:00) 15.1 8.33 (15:30) 5 (15:30) 0 0 0 0 0
15-06-2019 18.5 (15:10) 10.5 (00:00) 14.5 10 (17:20) 6.94 (16:10) 0 0 0 0 0
14-06-2019 15.5 (18:00) 7.9 (00:00) 11.7 8.06 (18:50) 5.83 (13:40) 0.2 0 0 0 0.2
13-06-2019 13.2 (20:50) 9.1 (00:00) 11.2 7.78 (13:40) 5.83 (13:40) 0 0 0 0 0
12-06-2019 -- (--) -- (--) -- -- (--) -- (--) -- -- -- 0 0
11-06-2019 -- (--) -- (--) -- -- (--) -- (--) -- -- -- -- --
10-06-2019 -- (--) -- (--) -- -- (--) -- (--) -- -- -- -- --
09-06-2019 -- (--) -- (--) -- -- (--) -- (--) -- -- -- -- --
08-06-2019 -- (--) -- (--) -- -- (--) -- (--) -- -- -- -- --
07-06-2019 -- (--) -- (--) -- -- (--) -- (--) -- 0.4 0.2 -- --
06-06-2019 15.6 (14:10) 7.9 (00:00) 11.8 20 (21:10) 8.61 (17:30) 2.2 0.2 0 1 1
05-06-2019 13.4 (12:00) 8.6 (00:00) 11 14.44 (12:30) 8.33 (12:30) 5.6 0.2 0.8 3.4 1.2
04-06-2019 16.6 (09:50) 10.4 (00:00) 13.5 18.33 (07:40) 9.17 (07:40) 2.4 0 1.2 0 1.2
03-06-2019 17.4 (11:00) 13.7 (00:00) 15.5 4.72 (11:10) 3.06 (14:00) 0.8 0 0 0.2 0.6
02-06-2019 23.3 (11:10) 14.5 (00:00) 18.9 6.67 (18:50) 4.17 (18:40) 0 0 0 0 0
01-06-2019 27 (14:10) 19.2 (00:00) 23.1 7.5 (18:10) 5.28 (18:10) 0 0 0 0 0
31-05-2019 30.8 (17:00) 17.5 (00:00) 24.1 6.67 (17:40) 4.44 (18:50) 0 0 0 0 0
30-05-2019 25.2 (18:00) 12.5 (00:00) 18.9 5.28 (14:00) 3.06 (14:00) 0 0 0 0 0
29-05-2019 20.1 (15:10) 9.3 (00:00) 14.7 5.56 (14:20) 3.61 (16:20) 0 0 0 0 0
28-05-2019 15.8 (16:00) 9.1 (00:00) 12.5 9.44 (16:50) 6.39 (15:00) 0 0 0 0 0
27-05-2019 14.4 (17:00) 10.5 (00:00) 12.4 8.89 (11:30) 5.28 (11:30) 5.6 0 4.2 1.4 0

Gráficas

Temp. máximas Temp. mínimas Temp. medias Precipitaciones Rachas de viento máximas Velocidades máximas media en intervalos de 10 minutos

Datos horarios

Fecha y hora oficial Temperatura (ºC) Velocidad del viento (km/h) Dirección del viento Racha (km/h) Dirección de racha Precipitación (mm) Presión (hPa) Tendencia (hPa) Humedad (%)
2019-06-25 23:00:00 15.8 3 Noroeste 6 Noroeste 0 -- -- 100
2019-06-25 22:00:00 16.2 5 Noroeste 8 Noroeste 0 -- -- 100
2019-06-25 21:00:00 18.2 8 Noroeste 11 Oeste 0 -- -- 93
2019-06-25 20:00:00 18.6 0 Calma 15 Oeste 0 -- -- 95
2019-06-25 19:00:00 19.1 2 Norte 13 Noroeste 0 -- -- 90
2019-06-25 18:00:00 19.7 5 Noroeste 15 Noroeste 0 -- -- 89
2019-06-25 17:00:00 20.1 9 Noroeste 15 Noroeste 0 -- -- 85
2019-06-25 16:00:00 18.9 8 Noroeste 16 Noroeste 0 -- -- 93
2019-06-25 15:00:00 17.5 5 Noroeste 18 Oeste 0 -- -- 99
2019-06-25 14:00:00 17.5 6 Noroeste 15 Noroeste 0 -- -- 97
2019-06-25 13:00:00 17.8 7 Noroeste 13 Noroeste 0 -- -- 95
2019-06-25 12:00:00 17.8 5 Noroeste 9 Oeste 0 -- -- 93
2019-06-25 11:00:00 16.8 4 Sur 13 Sudoeste 0 -- -- 93
2019-06-25 10:00:00 15.9 4 Sur 9 Sur 0 -- -- 100
2019-06-25 09:00:00 14.8 3 Sur 7 Sudoeste 0 -- -- 100
2019-06-25 08:00:00 14.3 4 Este 8 Sudeste 0 -- -- 100
2019-06-25 07:00:00 14.1 0 Calma 4 Noroeste 0 -- -- 100
2019-06-25 06:00:00 14.2 2 Sudoeste 10 Este 0 -- -- 100
2019-06-25 05:00:00 14.3 0 Calma 5 Oeste 0 -- -- 100
2019-06-25 04:00:00 14.3 0 Calma 8 Noroeste 0 -- -- 100
2019-06-25 03:00:00 14.4 5 Noroeste 10 Noroeste 0 -- -- 100
2019-06-25 02:00:00 14.6 0 Calma 3 Noroeste 0 -- -- 100
2019-06-25 01:00:00 14.6 0 Calma 9 Noroeste 0 -- -- 100
2019-06-25 00:00:00 14.8 6 Oeste 13 Noroeste 0 -- -- 100
2019-06-24 23:00:00 15.2 8 Noroeste 12 Noroeste 0 -- -- 100
2019-06-24 22:00:00 16 4 Oeste 8 Oeste 0 -- -- 100
2019-06-24 21:00:00 17 4 Noroeste 7 Oeste 0 -- -- 98
2019-06-24 20:00:00 16.6 2 Este 6 Sudoeste 0 -- -- 99
2019-06-24 19:00:00 16.4 4 Sur 10 Noroeste 0 -- -- 100
2019-06-24 18:00:00 15.8 7 Este 13 Este 0.2 -- -- 100
2019-06-24 17:00:00 15.6 9 Noroeste 14 Noroeste 0 -- -- 100
2019-06-24 16:00:00 16.8 6 Noroeste 12 Noroeste 0 -- -- 100
2019-06-24 15:00:00 16 6 Noroeste 11 Oeste 0.2 -- -- 100
2019-06-24 14:00:00 15.9 6 Noroeste 13 Noroeste 0 -- -- 100
2019-06-24 13:00:00 16.6 2 Este 12 Noroeste 0.2 -- -- 100
2019-06-24 12:00:00 16.6 3 Este 9 Sur 0 -- -- 100
2019-06-24 11:00:00 15.3 2 Nordeste 6 Sur 0 -- -- 100
2019-06-24 10:00:00 14.6 2 Norte 8 Sudeste 0 -- -- 100
2019-06-24 09:00:00 14.1 3 Oeste 19 Noroeste 0 -- -- 100
2019-06-24 08:00:00 14.1 6 Este 11 Oeste 0 -- -- 100
2019-06-24 07:00:00 14 11 Noroeste 14 Noroeste 0 -- -- 100
2019-06-24 06:00:00 14.3 4 Norte 10 Noroeste 0 -- -- 100
2019-06-24 05:00:00 14.2 4 Este 6 Este 0 -- -- 100
2019-06-24 04:00:00 13.9 2 Oeste 5 Noroeste 0 -- -- 100
2019-06-24 03:00:00 14.1 3 Sudoeste 5 Sudoeste 0 -- -- 100
2019-06-24 02:00:00 14.3 0 Calma 9 Sudeste 0 -- -- 100
2019-06-24 01:00:00 14.2 3 Oeste 15 Noroeste 0 -- -- 100
2019-06-24 00:00:00 14.5 5 Sur 13 Noroeste 0 -- -- 100
2019-06-23 23:00:00 15.3 3 Noroeste 10 Oeste 0 -- -- 99
2019-06-23 22:00:00 17.2 4 Noroeste 10 Noroeste 0 -- -- 98
2019-06-23 21:00:00 18.1 5 Noroeste 14 Este 0 -- -- 93
2019-06-23 20:00:00 19.2 14 Este 20 Este 0 -- -- 88
2019-06-23 19:00:00 20 9 Este 14 Este 0 -- -- 87
2019-06-23 18:00:00 20.6 4 Oeste 15 Oeste 0 -- -- 84
2019-06-23 17:00:00 19.8 8 Noroeste 15 Oeste 0 -- -- 86
2019-06-23 16:00:00 18.7 5 Noroeste 16 Noroeste 0 -- -- 91
2019-06-23 15:00:00 18.9 10 Noroeste 16 Noroeste 0 -- -- 93
2019-06-23 14:00:00 18.8 4 Noroeste 15 Noroeste 0 -- -- 92
2019-06-23 13:00:00 18.1 9 Noroeste 13 Noroeste 0 -- -- 95
2019-06-23 12:00:00 15.7 8 Nordeste 19 Oeste 0.2 -- -- 99
2019-06-23 11:00:00 15.7 10 Este 14 Este 1.2 -- -- 94
2019-06-23 10:00:00 15.8 8 Este 13 Este 0 -- -- 92
2019-06-23 09:00:00 15.3 7 Noroeste 13 Oeste 0 -- -- 91
2019-06-23 08:00:00 15.2 5 Este 14 Sudeste 0 -- -- 91
2019-06-23 07:00:00 13.9 9 Sur 19 Sudeste 1 -- -- 97
2019-06-23 06:00:00 14 9 Sur 21 Sudeste 1.4 -- -- 96
2019-06-23 05:00:00 14.4 17 Sur 24 Sudeste 1.8 -- -- 93
2019-06-23 04:00:00 17.1 6 Sur 12 Sudoeste 0.2 -- -- 86
2019-06-23 03:00:00 17.4 2 Este 6 Noroeste 0 -- -- 79
2019-06-23 02:00:00 17.7 4 Oeste 9 Nordeste 0 -- -- 79
2019-06-23 01:00:00 18.1 4 Nordeste 7 Noroeste 0 -- -- 78
2019-06-23 00:00:00 18 2 Sudeste 5 Este 0 -- -- 77
2019-06-22 23:00:00 18.3 2 Este 8 Este 0 -- -- 79
2019-06-22 22:00:00 18 0 Calma 6 Este 0 -- -- 82
2019-06-22 21:00:00 18.3 0 Calma 6 Este 0 -- -- 85
2019-06-22 20:00:00 18.8 3 Oeste 9 Este 0 -- -- 81
2019-06-22 19:00:00 20.3 2 Noroeste 13 Oeste 0 -- -- 77
2019-06-22 18:00:00 20.9 5 Noroeste 20 Noroeste 0 -- -- 68
2019-06-22 17:00:00 21.2 14 Noroeste 23 Noroeste 0 -- -- 64
2019-06-22 16:00:00 20.8 12 Noroeste 18 Noroeste 0 -- -- 70
2019-06-22 15:00:00 21.1 8 Noroeste 15 Noroeste 0 -- -- 75
2019-06-22 14:00:00 21.9 6 Noroeste 13 Noroeste 0 -- -- 70
2019-06-22 13:00:00 20.5 2 Noroeste 10 Sudoeste 0 -- -- 77
2019-06-22 12:00:00 18.5 6 Noroeste 11 Noroeste 0 -- -- 84
2019-06-22 11:00:00 19.5 3 Sudoeste 9 Sudeste 0 -- -- 72
2019-06-22 10:00:00 18.4 4 Noroeste 6 Noroeste 0 -- -- 78
2019-06-22 09:00:00 16.3 3 Nordeste 7 Nordeste 0 -- -- 84
2019-06-22 08:00:00 14.2 3 Noroeste 5 Noroeste 0 -- -- 88
2019-06-22 07:00:00 14 0 Calma 5 Sur 0 -- -- 89
2019-06-22 06:00:00 13.5 3 Este 8 Este 0 -- -- 93
2019-06-22 05:00:00 13.3 0 Calma 6 Este 0 -- -- 95
2019-06-22 04:00:00 12.7 3 Sur 6 Nordeste 0 -- -- 97
2019-06-22 03:00:00 12.7 4 Este 7 Este 0 -- -- 98
2019-06-22 02:00:00 12.7 0 Calma 6 Nordeste 0 -- -- 99
2019-06-22 01:00:00 12.7 3 Noroeste 7 Noroeste 0 -- -- 100
2019-06-22 00:00:00 12.9 3 Noroeste 8 Oeste 0 -- -- 99
2019-06-21 23:00:00 13.1 3 Noroeste 7 Sudeste 0 -- -- 98
2019-06-21 22:00:00 14.1 4 Nordeste 14 Este 0 -- -- 93
2019-06-21 21:00:00 15 9 Noroeste 28 Este 0 -- -- 91
2019-06-21 20:00:00 15 5 Oeste 17 Este 0 -- -- 91
2019-06-21 19:00:00 15.8 16 Este 33 Este 0 -- -- 86
2019-06-21 18:00:00 16.1 19 Este 28 Este 0 -- -- 86
2019-06-21 17:00:00 15.9 9 Este 24 Este 0 -- -- 85
2019-06-21 16:00:00 15.2 12 Este 22 Este 0 -- -- 86
2019-06-21 15:00:00 15.7 13 Este 22 Este 0 -- -- 84
2019-06-21 14:00:00 15.5 13 Nordeste 23 Nordeste 0 -- -- 83
2019-06-21 13:00:00 15.1 10 Nordeste 23 Nordeste 0 -- -- 85
2019-06-21 12:00:00 14.6 11 Este 23 Este 0 -- -- 88
2019-06-21 11:00:00 13.2 12 Este 22 Este 0 -- -- 90
2019-06-21 10:00:00 12.1 12 Nordeste 28 Nordeste 0 -- -- 96
2019-06-21 09:00:00 11.9 17 Nordeste 27 Nordeste 0.4 -- -- 99
2019-06-21 08:00:00 11.8 7 Nordeste 21 Nordeste 0.2 -- -- 100
2019-06-21 07:00:00 11.8 11 Nordeste 24 Este 0 -- -- 100
2019-06-21 06:00:00 11.8 3 Nordeste 9 Nordeste 0.4 -- -- 100
2019-06-21 05:00:00 11.9 0 Calma 4 Sur 0.2 -- -- 100
2019-06-21 04:00:00 12 3 Sudeste 11 Noroeste 0 -- -- 100
2019-06-21 03:00:00 12.1 2 Este 11 Este 0 -- -- 100
2019-06-21 02:00:00 12.4 3 Nordeste 13 Este 0 -- -- 100
2019-06-21 01:00:00 12.5 3 Nordeste 24 Este 0.2 -- -- 99
2019-06-21 00:00:00 12.2 0 Calma 13 Este 0.2 -- -- 100
2019-06-20 23:00:00 12.4 11 Nordeste 18 Nordeste 0.2 -- -- 98
2019-06-20 22:00:00 12.8 3 Norte 10 Nordeste 0 -- -- 95
2019-06-20 21:00:00 13.4 7 Nordeste 15 Este 0 -- -- 92
2019-06-20 20:00:00 13.5 5 Noroeste 11 Nordeste 0 -- -- 96
2019-06-20 19:00:00 13 6 Nordeste 16 Nordeste 0.2 -- -- 98
2019-06-20 18:00:00 12.7 8 Norte 19 Nordeste 0.4 -- -- 98
2019-06-20 17:00:00 13.2 9 Norte 17 Noroeste 0 -- -- 97
2019-06-20 16:00:00 13.4 6 Norte 20 Norte 0 -- -- 99
2019-06-20 15:00:00 13.6 10 Norte 17 Este 0 -- -- 96
2019-06-20 14:00:00 13.8 8 Nordeste 16 Este 0.2 -- -- 95
2019-06-20 13:00:00 13.5 6 Noroeste 17 Norte 0.2 -- -- 99
2019-06-20 12:00:00 13.5 4 Noroeste 20 Este 0 -- -- 100
2019-06-20 11:00:00 13.3 5 Este 13 Este 0.2 -- -- 100
2019-06-20 10:00:00 13.1 4 Nordeste 12 Nordeste 0.2 -- -- 100
2019-06-20 09:00:00 12.7 4 Noroeste 8 Oeste 0.8 -- -- 100
2019-06-20 08:00:00 12.9 0 Calma 4 Noroeste 0.6 -- -- 100
2019-06-20 07:00:00 12.8 2 Sudoeste 3 Noroeste 0.4 -- -- 100
2019-06-20 06:00:00 12.7 0 Calma 4 Noroeste 0.2 -- -- 100
2019-06-20 05:00:00 12.8 0 Calma 5 Oeste 0 -- -- 100
2019-06-20 04:00:00 12.8 3 Nordeste 5 Sudoeste 0 -- -- 100
2019-06-20 03:00:00 13 3 Oeste 4 Sudoeste 0 -- -- 100
2019-06-20 02:00:00 13 3 Noroeste 5 Noroeste 0 -- -- 100
2019-06-20 01:00:00 13.1 0 Calma 3 Sudeste 0.2 -- -- 100
2019-06-20 00:00:00 13.1 0 Calma 3 Noroeste 0 -- -- 100
2019-06-19 23:00:00 13.1 0 Calma 4 Este 0.2 -- -- 100
2019-06-19 22:00:00 13.1 0 Calma 4 Noroeste 1.4 -- -- 100
2019-06-19 21:00:00 -- 0 Calma 6 Este 1.2 -- -- --
2019-06-19 20:00:00 13.3 0 Calma 15 Noroeste 0 -- -- 100
2019-06-19 19:00:00 13.1 13 Noroeste 26 Oeste 0 -- -- 100
2019-06-19 18:00:00 13.4 11 Noroeste 20 Noroeste 0 -- -- 100
2019-06-19 17:00:00 14.2 14 Noroeste 19 Noroeste 0 -- -- 99
2019-06-19 16:00:00 15.6 14 Noroeste -- -- -- -- -- 96
2019-06-19 15:00:00 -- -- -- -- -- -- -- -- --
2019-06-19 14:00:00 17.3 10 Noroeste 19 Noroeste 0 -- -- 88
2019-06-19 13:00:00 18.3 12 Noroeste 25 Sudoeste 0 -- -- 79
2019-06-19 12:00:00 17.9 6 Oeste 22 Noroeste 0 -- -- 72
2019-06-19 11:00:00 17.6 8 Noroeste 18 Noroeste 0 -- -- 77
2019-06-19 10:00:00 17.7 5 Noroeste 31 Sur 0 -- -- 73
2019-06-19 09:00:00 16.2 5 Noroeste 26 Oeste 0 -- -- 80
2019-06-19 08:00:00 15.5 8 Oeste 22 Sur 0 -- -- 81
2019-06-19 07:00:00 15 7 Sudoeste 23 Sudoeste 0 -- -- 85
2019-06-19 06:00:00 15.3 10 Sudoeste 31 Oeste 0 -- -- 84
2019-06-19 05:00:00 15.6 8 Noroeste 32 Sudoeste 0 -- -- 82
2019-06-19 04:00:00 16.1 13 Oeste 33 Sudoeste 0 -- -- 79
2019-06-19 03:00:00 16.3 11 Oeste 38 Sudoeste 0 -- -- 79
2019-06-19 02:00:00 16.5 11 Sudoeste 37 Sudoeste 0 -- -- 78
2019-06-19 01:00:00 16.7 10 Oeste 36 Sudoeste 0 -- -- 78
2019-06-19 00:00:00 16.5 13 Sudoeste 35 Sur 0 -- -- 81
2019-06-18 23:00:00 16.5 7 Sudoeste 22 Sudoeste 0 -- -- 85
2019-06-18 22:00:00 16.4 6 Sur 12 Sur 0 -- -- 90
2019-06-18 21:00:00 14.8 7 Sudeste 9 Sudeste 0.2 -- -- 100
2019-06-18 20:00:00 15.1 7 Nordeste 21 Este 1.2 -- -- 95
2019-06-18 19:00:00 14.8 8 Noroeste 13 Oeste 0.6 -- -- 95
2019-06-18 18:00:00 16.4 4 Sur 20 Oeste 0 -- -- 89
2019-06-18 17:00:00 20.1 8 Noroeste 39 Sur 0 -- -- 78
2019-06-18 16:00:00 22.3 16 Sur 33 Sur 0 -- -- 60
2019-06-18 15:00:00 21.2 12 Sur 27 Sur 0 -- -- 66
2019-06-18 14:00:00 20.8 13 Noroeste 19 Noroeste 0 -- -- 69
2019-06-18 13:00:00 20.9 6 Oeste 17 Oeste 0 -- -- 71
2019-06-18 12:00:00 18.2 4 Noroeste 11 Norte 0 -- -- 85
2019-06-18 11:00:00 16.3 3 Noroeste 9 Noroeste 0 -- -- 90
2019-06-18 10:00:00 15.9 3 Sudoeste 13 Noroeste 0 -- -- 96
2019-06-18 09:00:00 14.7 4 Noroeste 9 Sur 0 -- -- 96
2019-06-18 08:00:00 13 3 Noroeste 7 Oeste 0 -- -- 100
2019-06-18 07:00:00 12.4 2 Sudoeste 5 Sudeste 0 -- -- 100
2019-06-18 06:00:00 12.2 5 Este 8 Este 0 -- -- 100
2019-06-18 05:00:00 12.8 4 Sudeste 8 Sur 0 -- -- 100
2019-06-18 04:00:00 13 3 Sur 4 Sur 0 -- -- 100
2019-06-18 03:00:00 13.1 2 Oeste 4 Noroeste 0 -- -- 100
2019-06-18 02:00:00 13.3 3 Noroeste 10 Oeste 0 -- -- 100
2019-06-18 01:00:00 13.6 2 Este 15 Noroeste 0 -- -- 100
2019-06-18 00:00:00 14.2 2 Este 8 Noroeste 0 -- -- 100
2019-06-17 23:00:00 14.2 0 Calma 6 Este 0 -- -- 99
2019-06-17 22:00:00 14.2 2 Oeste 10 Noroeste 0 -- -- 99
2019-06-17 21:00:00 14.6 5 Norte 10 Oeste 0 -- -- 98
2019-06-17 20:00:00 14.3 2 Oeste 17 Oeste 0 -- -- 98
2019-06-17 19:00:00 14.7 4 Oeste 14 Noroeste 0 -- -- 97
2019-06-17 18:00:00 15 7 Noroeste 14 Noroeste 0 -- -- 96
2019-06-17 17:00:00 15.3 6 Noroeste 15 Noroeste 0 -- -- 93
2019-06-17 16:00:00 15.6 10 Noroeste 19 Noroeste 0 -- -- 92
2019-06-17 15:00:00 15.8 15 Noroeste 20 Noroeste 0 -- -- 90
2019-06-17 14:00:00 16.6 9 Noroeste 19 Noroeste 0 -- -- 87
2019-06-17 13:00:00 16 12 Noroeste 18 Noroeste 0 -- -- 86
2019-06-17 12:00:00 15.5 7 Noroeste 12 Noroeste 0 -- -- 86
2019-06-17 11:00:00 14.7 2 Este 7 Sur 0 -- -- 89
2019-06-17 10:00:00 13.5 0 Calma 5 Noroeste 0 -- -- 98
2019-06-17 09:00:00 12.8 2 Noroeste 6 Noroeste 0 -- -- 100
2019-06-17 08:00:00 12.5 0 Calma 5 Noroeste 0 -- -- 100
2019-06-17 07:00:00 12.4 4 Oeste 7 Oeste 0 -- -- 100
2019-06-17 06:00:00 12.6 0 Calma 4 Sudoeste 0 -- -- 100
2019-06-17 05:00:00 12.6 0 Calma 5 Oeste 0 -- -- 100
2019-06-17 04:00:00 12.7 0 Calma 3 Norte 0 -- -- 100
2019-06-17 03:00:00 12.9 2 Sudoeste 8 Nordeste 0 -- -- 99
2019-06-17 02:00:00 13.2 4 Nordeste 7 Nordeste 0 -- -- 98
2019-06-17 01:00:00 13.1 3 Nordeste 5 Este 0 -- -- 100
2019-06-17 00:00:00 13.2 5 Este 10 Este 0 -- -- 100
2019-06-16 23:00:00 13.5 4 Nordeste 13 Nordeste 0 -- -- 98
2019-06-16 22:00:00 14 7 Este 13 Este 0 -- -- 94
2019-06-16 21:00:00 15 2 Noroeste 10 Oeste 0 -- -- 93
2019-06-16 20:00:00 15.3 2 Oeste 22 Oeste 0 -- -- 89
2019-06-16 19:00:00 17.5 8 Noroeste 21 Oeste 0 -- -- 81
2019-06-16 18:00:00 18.4 10 Noroeste 21 Noroeste 0 -- -- 78
2019-06-16 17:00:00 19.3 9 Noroeste 25 Noroeste 0 -- -- 75
2019-06-16 16:00:00 18.2 17 Noroeste 30 Noroeste 0 -- -- 77
2019-06-16 15:00:00 18.3 14 Noroeste 23 Noroeste 0 -- -- 76
2019-06-16 14:00:00 17.9 12 Noroeste 21 Noroeste 0 -- -- 76
2019-06-16 13:00:00 17.2 11 Noroeste 19 Noroeste 0 -- -- 76
2019-06-16 12:00:00 16.2 11 Noroeste 18 Noroeste 0 -- -- 79
2019-06-16 11:00:00 15 6 Noroeste 13 Noroeste 0 -- -- 82
2019-06-16 10:00:00 13.8 3 Noroeste 7 Noroeste 0 -- -- 84
2019-06-16 09:00:00 13.2 0 Calma 5 Sur 0 -- -- 88
2019-06-16 08:00:00 11.8 0 Calma 3 Este 0 -- -- 90
2019-06-16 07:00:00 10.7 2 Sudeste 6 Este 0 -- -- 93
2019-06-16 06:00:00 10.8 2 Sur 3 Sur 0 -- -- 92
2019-06-16 05:00:00 11.2 0 Calma 9 Este 0 -- -- 91
2019-06-16 04:00:00 11.7 5 Este 13 Este 0 -- -- 88
2019-06-16 03:00:00 12.1 5 Este 17 Este 0 -- -- 86
2019-06-16 02:00:00 12.3 6 Este 13 Este 0 -- -- 84
2019-06-16 01:00:00 12.3 5 Este 14 Este 0 -- -- 83
2019-06-16 00:00:00 12.2 7 Este 11 Este 0 -- -- 88
2019-06-15 23:00:00 12.2 9 Este 13 Este 0 -- -- 90
2019-06-15 22:00:00 12.4 6 Nordeste 14 Norte 0 -- -- 88
2019-06-15 21:00:00 12.7 6 Norte 15 Norte 0 -- -- 88
2019-06-15 20:00:00 12.9 11 Norte 19 Noroeste 0 -- -- 89
2019-06-15 19:00:00 13.9 8 Nordeste 28 Noroeste 0 -- -- 85
2019-06-15 18:00:00 15.2 12 Nordeste 36 Noroeste 0 -- -- 77
2019-06-15 17:00:00 16.1 20 Noroeste 32 Noroeste 0 -- -- 76
2019-06-15 16:00:00 17.1 21 Noroeste 32 Noroeste 0 -- -- 71
2019-06-15 15:00:00 17.7 10 Noroeste 26 Oeste 0 -- -- 59
2019-06-15 14:00:00 17.6 9 Oeste 28 Oeste 0 -- -- 55
2019-06-15 13:00:00 15.9 9 Noroeste 30 Noroeste 0 -- -- 61
2019-06-15 12:00:00 15.8 6 Oeste 28 Sudoeste 0 -- -- 64
2019-06-15 11:00:00 15.6 12 Sudoeste 27 Sudoeste 0 -- -- 64
2019-06-15 10:00:00 14 10 Sudoeste 25 Sudoeste 0 -- -- 75
2019-06-15 09:00:00 12.2 8 Sudoeste 21 Sudoeste 0 -- -- 87
2019-06-15 08:00:00 11.2 5 Oeste 15 Sudoeste 0 -- -- 90
2019-06-15 07:00:00 10.8 2 Sur 13 Sudoeste 0 -- -- 91
2019-06-15 06:00:00 11.1 4 Noroeste 13 Sudoeste 0 -- -- 89
2019-06-15 05:00:00 10.9 3 Noroeste 15 Sur 0 -- -- 89
2019-06-15 04:00:00 10.8 3 Sur 17 Sur 0 -- -- 91
2019-06-15 03:00:00 10.6 4 Sur 10 Sur 0 -- -- 92
2019-06-15 02:00:00 10.6 4 Oeste 10 Sur 0 -- -- 91
2019-06-15 01:00:00 10.7 5 Sudoeste 15 Sudoeste 0 -- -- 91
2019-06-15 00:00:00 10.9 5 Este 8 Este 0 -- -- 89
2019-06-14 23:00:00 10.8 5 Este 8 Este 0 -- -- 92
2019-06-14 22:00:00 11.2 4 Oeste 13 Noroeste 0.2 -- -- 89
2019-06-14 21:00:00 12 6 Noroeste 10 Noroeste 0 -- -- 88
2019-06-14 20:00:00 12.5 5 Noroeste 22 Noroeste 0 -- -- 84
2019-06-14 19:00:00 13.2 17 Noroeste 29 Noroeste 0 -- -- 81
2019-06-14 18:00:00 15.5 13 Noroeste 26 Noroeste 0 -- -- 77
2019-06-14 17:00:00 14.6 19 Noroeste 26 Noroeste 0 -- -- 80
2019-06-14 16:00:00 14.7 14 Noroeste 25 Noroeste 0 -- -- 81
2019-06-14 15:00:00 15 16 Noroeste 26 Noroeste 0 -- -- 85
2019-06-14 14:00:00 13.2 18 Noroeste 27 Noroeste 0 -- -- 87
2019-06-14 13:00:00 13.6 12 Noroeste 20 Noroeste 0 -- -- 85
2019-06-14 12:00:00 12.6 8 Noroeste 13 Noroeste 0 -- -- 85
2019-06-14 11:00:00 12.2 5 Noroeste 8 Norte 0 -- -- 90
2019-06-14 10:00:00 11 3 Sudeste 8 Este 0 -- -- 92
2019-06-14 09:00:00 11.3 0 Calma 5 Sudoeste 0 -- -- 89
2019-06-14 08:00:00 9 0 Calma 3 Sudoeste 0 -- -- 95
2019-06-14 07:00:00 8.2 0 Calma 5 Sur 0 -- -- 96
2019-06-14 06:00:00 8.3 2 Noroeste 7 Sudoeste 0 -- -- 95
2019-06-14 05:00:00 8.6 0 Calma 6 Este 0 -- -- 95
2019-06-14 04:00:00 8.8 0 Calma 2 Sudeste 0 -- -- 94
2019-06-14 03:00:00 8.9 0 Calma 5 Sudeste 0 -- -- 91
2019-06-14 02:00:00 9.8 0 Calma 5 Este 0 -- -- 94
2019-06-14 01:00:00 9.9 3 Sudeste 5 Este 0 -- -- 91
2019-06-14 00:00:00 9.9 2 Sur 4 Sudeste 0 -- -- 96
2019-06-13 23:00:00 10.2 3 Sudeste 9 Oeste 0 -- -- 97
2019-06-13 22:00:00 11.5 3 Norte 17 Este 0 -- -- 90
2019-06-13 21:00:00 13.1 7 Este 15 Este 0 -- -- 81
2019-06-13 20:00:00 12.3 8 Sudeste 15 Este 0 -- -- 84
2019-06-13 19:00:00 12.6 2 Nordeste 16 Este 0 -- -- 84
2019-06-13 18:00:00 12.9 6 Este 16 Este 0 -- -- 82
2019-06-13 17:00:00 11.7 8 Nordeste 21 Noroeste 0 -- -- 86
2019-06-13 16:00:00 12.5 12 Noroeste 28 Noroeste 0 -- -- 86
2019-06-13 15:00:00 12.8 14 Noroeste 24 Norte 0 -- -- 83
2019-06-13 14:00:00 11.3 15 Noroeste 28 Noroeste 0 -- -- 88
2019-06-13 13:00:00 12.5 13 Noroeste 22 Noroeste 0 -- -- 88
2019-06-13 12:00:00 11.8 5 Noroeste 19 Noroeste 0 -- -- 91
2019-06-13 11:00:00 11.5 6 Noroeste 10 Noroeste 0 -- -- 92
2019-06-13 10:00:00 11.1 3 Noroeste 7 Noroeste 0 -- -- 93
2019-06-13 09:00:00 10 3 Sudoeste 5 Sur 0 -- -- 96
2019-06-13 08:00:00 9.2 3 Sudoeste 4 Sudoeste 0 -- -- 96
2019-06-13 07:00:00 9.2 0 Calma 4 Noroeste 0 -- -- 96
2019-06-13 06:00:00 9.3 2 Noroeste 4 Este 0 -- -- 95
2019-06-13 05:00:00 9.5 3 Noroeste 7 Sudeste 0 -- -- 94
2019-06-13 04:00:00 9.9 0 Calma 3 Este 0 -- -- 90
2019-06-13 03:00:00 9.9 0 Calma 7 Nordeste 0 -- -- 89
2019-06-13 02:00:00 10.1 5 Este 7 Este 0 -- -- 84
2019-06-13 01:00:00 10.3 0 Calma 13 Este 0 -- -- 84
2019-06-13 00:00:00 10.3 7 Este 13 Este 0 -- -- 87
2019-06-12 23:00:00 10.2 5 Este 9 Nordeste 0 -- -- 87
2019-06-12 22:00:00 10.4 4 Nordeste 18 Noroeste 0 -- -- 88
2019-06-12 21:00:00 10.6 15 Noroeste 22 Noroeste 0 -- -- 92
2019-06-12 20:00:00 11 10 Noroeste 23 Noroeste 0 -- -- 90
2019-06-12 19:00:00 11.3 16 Noroeste 28 Noroeste 0 -- -- 87
2019-06-12 18:00:00 11.8 21 Noroeste 34 Noroeste 0 -- -- 84
2019-06-12 17:00:00 12.4 20 Noroeste 30 Noroeste 0 -- -- 83
2019-06-12 16:00:00 12.8 17 Noroeste 31 Noroeste 0 -- -- 83
2019-06-12 15:00:00 12.8 15 Noroeste 22 Noroeste 0 -- -- 81
2019-06-12 14:00:00 13 10 Noroeste 24 Noroeste 0 -- -- 76
2019-06-12 13:00:00 12.4 11 Noroeste 16 Noroeste 0 -- -- 76
2019-06-12 12:00:00 12.2 5 Noroeste 14 Noroeste 0 -- -- 78
2019-06-12 11:00:00 10.4 3 Oeste 15 Sur 0 -- -- 84
2019-06-12 10:00:00 10.4 4 Noroeste 15 Sudoeste 0 -- -- 86
2019-06-12 09:00:00 -- -- -- -- -- -- -- -- --
2019-06-12 08:00:00 -- -- -- -- -- -- -- -- --
2019-06-12 07:00:00 -- -- -- -- -- -- -- -- --
2019-06-12 06:00:00 -- -- -- -- -- -- -- -- --
2019-06-12 05:00:00 -- -- -- -- -- -- -- -- --
2019-06-12 04:00:00 -- -- -- -- -- -- -- -- --
2019-06-12 03:00:00 -- -- -- -- -- -- -- -- --
2019-06-12 02:00:00 -- -- -- -- -- -- -- -- --
2019-06-12 01:00:00 -- -- -- -- -- -- -- -- --
2019-06-12 00:00:00 -- -- -- -- -- -- -- -- --
2019-06-11 23:00:00 -- -- -- -- -- -- -- -- --
2019-06-11 22:00:00 -- -- -- -- -- -- -- -- --
2019-06-11 21:00:00 -- -- -- -- -- -- -- -- --
2019-06-11 20:00:00 -- -- -- -- -- -- -- -- --
2019-06-11 19:00:00 -- -- -- -- -- -- -- -- --
2019-06-11 18:00:00 -- -- -- -- -- -- -- -- --
2019-06-11 17:00:00 -- -- -- -- -- -- -- -- --
2019-06-11 16:00:00 -- -- -- -- -- -- -- -- --
2019-06-11 15:00:00 -- -- -- -- -- -- -- -- --
2019-06-11 14:00:00 -- -- -- -- -- -- -- -- --
2019-06-11 13:00:00 -- -- -- -- -- -- -- -- --
2019-06-11 12:00:00 -- -- -- -- -- -- -- -- --
2019-06-11 11:00:00 -- -- -- -- -- -- -- -- --
2019-06-11 10:00:00 -- -- -- -- -- -- -- -- --
2019-06-11 09:00:00 -- -- -- -- -- -- -- -- --
2019-06-11 08:00:00 -- -- -- -- -- -- -- -- --
2019-06-11 07:00:00 -- -- -- -- -- -- -- -- --
2019-06-11 06:00:00 -- -- -- -- -- -- -- -- --
2019-06-11 05:00:00 -- -- -- -- -- -- -- -- --
2019-06-11 04:00:00 -- -- -- -- -- -- -- -- --
2019-06-11 03:00:00 -- -- -- -- -- -- -- -- --
2019-06-11 02:00:00 -- -- -- -- -- -- -- -- --
2019-06-11 01:00:00 -- -- -- -- -- -- -- -- --
2019-06-11 00:00:00 -- -- -- -- -- -- -- -- --
2019-06-10 23:00:00 -- -- -- -- -- -- -- -- --
2019-06-10 22:00:00 -- -- -- -- -- -- -- -- --
2019-06-10 21:00:00 -- -- -- -- -- -- -- -- --
2019-06-10 20:00:00 -- -- -- -- -- -- -- -- --
2019-06-10 19:00:00 -- -- -- -- -- -- -- -- --
2019-06-10 18:00:00 -- -- -- -- -- -- -- -- --
2019-06-10 17:00:00 -- -- -- -- -- -- -- -- --
2019-06-10 16:00:00 -- -- -- -- -- -- -- -- --
2019-06-10 15:00:00 -- -- -- -- -- -- -- -- --
2019-06-10 14:00:00 -- -- -- -- -- -- -- -- --
2019-06-10 13:00:00 -- -- -- -- -- -- -- -- --
2019-06-10 12:00:00 -- -- -- -- -- -- -- -- --
2019-06-10 11:00:00 -- -- -- -- -- -- -- -- --
2019-06-10 10:00:00 -- -- -- -- -- -- -- -- --
2019-06-10 09:00:00 -- -- -- -- -- -- -- -- --
2019-06-10 08:00:00 -- -- -- -- -- -- -- -- --
2019-06-10 07:00:00 -- -- -- -- -- -- -- -- --
2019-06-10 06:00:00 -- -- -- -- -- -- -- -- --
2019-06-10 05:00:00 -- -- -- -- -- -- -- -- --
2019-06-10 04:00:00 -- -- -- -- -- -- -- -- --
2019-06-10 03:00:00 -- -- -- -- -- -- -- -- --
2019-06-10 02:00:00 -- -- -- -- -- -- -- -- --
2019-06-10 01:00:00 -- -- -- -- -- -- -- -- --
2019-06-10 00:00:00 -- -- -- -- -- -- -- -- --
2019-06-09 23:00:00 -- -- -- -- -- -- -- -- --
2019-06-09 22:00:00 -- -- -- -- -- -- -- -- --
2019-06-09 21:00:00 -- -- -- -- -- -- -- -- --
2019-06-09 20:00:00 -- -- -- -- -- -- -- -- --
2019-06-09 19:00:00 -- -- -- -- -- -- -- -- --
2019-06-09 18:00:00 -- -- -- -- -- -- -- -- --
2019-06-09 17:00:00 -- -- -- -- -- -- -- -- --
2019-06-09 16:00:00 -- -- -- -- -- -- -- -- --
2019-06-09 15:00:00 -- -- -- -- -- -- -- -- --
2019-06-09 14:00:00 -- -- -- -- -- -- -- -- --
2019-06-09 13:00:00 -- -- -- -- -- -- -- -- --
2019-06-09 12:00:00 -- -- -- -- -- -- -- -- --
2019-06-09 11:00:00 -- -- -- -- -- -- -- -- --
2019-06-09 10:00:00 -- -- -- -- -- -- -- -- --
2019-06-09 09:00:00 -- -- -- -- -- -- -- -- --
2019-06-09 08:00:00 -- -- -- -- -- -- -- -- --
2019-06-09 07:00:00 -- -- -- -- -- -- -- -- --
2019-06-09 06:00:00 -- -- -- -- -- -- -- -- --
2019-06-09 05:00:00 -- -- -- -- -- -- -- -- --
2019-06-09 04:00:00 -- -- -- -- -- -- -- -- --
2019-06-09 03:00:00 -- -- -- -- -- -- -- -- --
2019-06-09 02:00:00 -- -- -- -- -- -- -- -- --
2019-06-09 01:00:00 -- -- -- -- -- -- -- -- --
2019-06-09 00:00:00 -- -- -- -- -- -- -- -- --
2019-06-08 23:00:00 -- -- -- -- -- -- -- -- --
2019-06-08 22:00:00 -- -- -- -- -- -- -- -- --
2019-06-08 21:00:00 -- -- -- -- -- -- -- -- --
2019-06-08 20:00:00 -- -- -- -- -- -- -- -- --
2019-06-08 19:00:00 -- -- -- -- -- -- -- -- --
2019-06-08 18:00:00 -- -- -- -- -- -- -- -- --
2019-06-08 17:00:00 -- -- -- -- -- -- -- -- --
2019-06-08 16:00:00 -- -- -- -- -- -- -- -- --
2019-06-08 15:00:00 -- -- -- -- -- -- -- -- --
2019-06-08 14:00:00 -- -- -- -- -- -- -- -- --
2019-06-08 13:00:00 -- -- -- -- -- -- -- -- --
2019-06-08 12:00:00 -- -- -- -- -- -- -- -- --
2019-06-08 11:00:00 -- -- -- -- -- -- -- -- --
2019-06-08 10:00:00 -- -- -- -- -- -- -- -- --
2019-06-08 09:00:00 -- -- -- -- -- -- -- -- --
2019-06-08 08:00:00 -- -- -- -- -- -- -- -- --
2019-06-08 07:00:00 -- -- -- -- -- -- -- -- --
2019-06-08 06:00:00 -- -- -- -- -- -- -- -- --
2019-06-08 05:00:00 -- -- -- -- -- -- -- -- --
2019-06-08 04:00:00 -- -- -- -- -- -- -- -- --
2019-06-08 03:00:00 -- -- -- -- -- -- -- -- --
2019-06-08 02:00:00 -- -- -- -- -- -- -- -- --
2019-06-08 01:00:00 -- -- -- -- -- -- -- -- --
2019-06-08 00:00:00 -- -- -- -- -- -- -- -- --
2019-06-07 23:00:00 -- -- -- -- -- -- -- -- --
2019-06-07 22:00:00 -- -- -- -- -- -- -- -- --
2019-06-07 21:00:00 -- -- -- -- -- -- -- -- --
2019-06-07 20:00:00 -- -- -- -- -- -- -- -- --
2019-06-07 19:00:00 -- -- -- -- -- -- -- -- --
2019-06-07 18:00:00 -- -- -- -- -- -- -- -- --
2019-06-07 17:00:00 -- -- -- -- -- -- -- -- --
2019-06-07 16:00:00 -- -- -- -- -- -- -- -- --
2019-06-07 15:00:00 -- -- -- -- -- -- -- -- --
2019-06-07 14:00:00 -- -- -- -- -- -- -- -- --
2019-06-07 13:00:00 -- -- -- -- -- -- -- -- --
2019-06-07 12:00:00 11.3 9 Noroeste 36 Noroeste 0 -- -- 75
2019-06-07 11:00:00 11 12 Noroeste 26 Sudoeste 0 -- -- 73
2019-06-07 10:00:00 10.2 11 Noroeste 26 Noroeste 0 -- -- 77
2019-06-07 09:00:00 10.5 12 Oeste 27 Noroeste 0 -- -- 76
2019-06-07 08:00:00 8.8 11 Oeste 28 Oeste 0 -- -- 81
2019-06-07 07:00:00 8.5 13 Noroeste 38 Sudoeste 0.2 -- -- 83
2019-06-07 06:00:00 7.9 10 Noroeste 49 Oeste 0.2 -- -- 90
2019-06-07 05:00:00 8.4 10 Noroeste 37 Sur 0.2 -- -- 83
2019-06-07 04:00:00 7.9 12 Noroeste 33 Sur 0 -- -- 89
2019-06-07 03:00:00 8.5 12 Noroeste 43 Sur 0 -- -- 81
2019-06-07 02:00:00 8.4 17 Sudoeste 53 Sudoeste 0 -- -- 81
2019-06-07 01:00:00 8.9 11 Oeste 41 Sudoeste 0 -- -- 87
2019-06-07 00:00:00 10 14 Noroeste 36 Sudoeste 0 -- -- 77
2019-06-06 23:00:00 10.4 17 Oeste 60 Sudoeste 0 -- -- 77
2019-06-06 22:00:00 11.2 16 Oeste 72 Sudoeste 0 -- -- 78
2019-06-06 21:00:00 12.9 22 Oeste 62 Sudoeste 0 -- -- 71
2019-06-06 20:00:00 14.3 15 Oeste 62 Sudoeste 0 -- -- 71
2019-06-06 19:00:00 14.7 17 Sudoeste 45 Sudoeste 1 -- -- 78
2019-06-06 18:00:00 15.5 14 Sur 51 Sudeste 0 -- -- 72
2019-06-06 17:00:00 13 17 Sudeste 29 Sudeste 0.8 -- -- 87
2019-06-06 16:00:00 13 4 Nordeste 9 Noroeste 0.2 -- -- 89
2019-06-06 15:00:00 12.1 3 Este 25 Sudeste 0 -- -- 87
2019-06-06 14:00:00 14.8 21 Sudeste 34 Sudeste 0 -- -- 67
2019-06-06 13:00:00 13.7 26 Este 36 Este 0 -- -- 68
2019-06-06 12:00:00 12 16 Sudeste 28 Sudeste 0 -- -- 70
2019-06-06 11:00:00 11.1 7 Sudeste 23 Este 0 -- -- 80
2019-06-06 10:00:00 11 4 Este 9 Sudeste 0 -- -- 83
2019-06-06 09:00:00 11.1 6 Sudeste 18 Sudeste 0 -- -- 73
2019-06-06 08:00:00 10.2 6 Sudeste 16 Sudeste 0 -- -- 74
2019-06-06 07:00:00 9.2 9 Sudoeste 22 Sur 0 -- -- 79
2019-06-06 06:00:00 8.2 3 Sur 9 Sur 0 -- -- 87
2019-06-06 05:00:00 8.1 3 Sudoeste 12 Sudoeste 0 -- -- 87
2019-06-06 04:00:00 8.4 5 Noroeste 26 Sur 0 -- -- 84
2019-06-06 03:00:00 8.2 14 Sur 27 Sudoeste 0 -- -- 87
2019-06-06 02:00:00 8.4 7 Sudoeste 17 Sur 0 -- -- 87
2019-06-06 01:00:00 8.5 4 Sudoeste 12 Sur 0.2 -- -- 88
2019-06-06 00:00:00 8.6 4 Sudeste 18 Sur 0 -- -- 92
2019-06-05 23:00:00 9.2 7 Sudoeste 15 Sur 0 -- -- 86
2019-06-05 22:00:00 9.4 6 Sur 16 Sur 0 -- -- 90
2019-06-05 21:00:00 9.9 9 Este 16 Sudeste 0 -- -- 92
2019-06-05 20:00:00 9.2 3 Norte 13 Noroeste 1.2 -- -- 96
2019-06-05 19:00:00 10.9 3 Noroeste 23 Noroeste 0 -- -- 88
2019-06-05 18:00:00 10.8 18 Noroeste 27 Noroeste 0 -- -- 87
2019-06-05 17:00:00 12 4 Norte 10 Noroeste 0.2 -- -- 86
2019-06-05 16:00:00 9.7 6 Nordeste 13 Este 1.4 -- -- 88
2019-06-05 15:00:00 10 15 Noroeste 23 Noroeste 0.8 -- -- 89
2019-06-05 14:00:00 9.6 3 Sudoeste 19 Sur 1 -- -- 94
2019-06-05 13:00:00 9.5 17 Noroeste 52 Noroeste 0 -- -- 88
2019-06-05 12:00:00 13.4 8 Sudoeste 21 Sudoeste 0 -- -- 75
2019-06-05 11:00:00 11.5 6 Noroeste 25 Noroeste 0.2 -- -- 89
2019-06-05 10:00:00 11.7 6 Noroeste 19 Oeste 0 -- -- 85
2019-06-05 09:00:00 9.6 4 Oeste 27 Noroeste 0 -- -- 93
2019-06-05 08:00:00 9.4 5 Oeste 19 Noroeste 0.6 -- -- 92
2019-06-05 07:00:00 9.9 5 Oeste 15 Sudoeste 0 -- -- 86
2019-06-05 06:00:00 10 5 Oeste 12 Sudoeste 0 -- -- 85
2019-06-05 05:00:00 10.2 6 Oeste 16 Sudoeste 0 -- -- 84
2019-06-05 04:00:00 10.3 7 Oeste 18 Sudoeste 0 -- -- 85
2019-06-05 03:00:00 10.5 7 Oeste 18 Sudoeste 0 -- -- 86
2019-06-05 02:00:00 10.8 9 Sudoeste 14 Sudoeste 0.2 -- -- 89
2019-06-05 01:00:00 10.3 2 Este 14 Noroeste 0 -- -- 98
2019-06-05 00:00:00 10.4 12 Noroeste 18 Noroeste 0 -- -- 98
2019-06-04 23:00:00 10.9 3 Noroeste 8 Noroeste 0.2 -- -- 96
2019-06-04 22:00:00 11 0 Calma 24 Noroeste 0 -- -- 97
2019-06-04 21:00:00 11.6 10 Noroeste 21 Noroeste 0 -- -- 96
2019-06-04 20:00:00 12.5 9 Noroeste 24 Noroeste 0 -- -- 96
2019-06-04 19:00:00 11.8 17 Noroeste 27 Noroeste 1 -- -- 95
2019-06-04 18:00:00 13.7 16 Noroeste 34 Noroeste 0 -- -- 87
2019-06-04 17:00:00 13.9 30 Noroeste 37 Noroeste 0 -- -- 84
2019-06-04 16:00:00 14.5 20 Norte 34 Noroeste 0 -- -- 85
2019-06-04 15:00:00 15.5 22 Noroeste 40 Noroeste 0 -- -- 84
2019-06-04 14:00:00 15.6 17 Noroeste 36 Noroeste 0 -- -- 77
2019-06-04 13:00:00 13.4 6 Noroeste 19 Oeste 0 -- -- 90
2019-06-04 12:00:00 11.8 10 Noroeste 28 Noroeste 1 -- -- 100
2019-06-04 11:00:00 13.7 6 Oeste 31 Sur 0 -- -- 93
2019-06-04 10:00:00 16.2 10 Oeste 39 Sudoeste 0 -- -- 73
2019-06-04 09:00:00 15.4 20 Sudoeste 49 Sudoeste 0 -- -- 74
2019-06-04 08:00:00 14.9 32 Sur 66 Sur 0 -- -- 74
2019-06-04 07:00:00 13.9 26 Sudoeste 61 Sudoeste 0.2 -- -- 77
2019-06-04 06:00:00 12.8 10 Sudeste 34 Sudoeste 0 -- -- 89
2019-06-04 05:00:00 13 14 Sur 36 Sur 0 -- -- 95
2019-06-04 04:00:00 13 2 Sudoeste 8 Sur 0 -- -- 100
2019-06-04 03:00:00 13.4 4 Nordeste 11 Oeste 0 -- -- 100
2019-06-04 02:00:00 13.8 4 Oeste 6 Oeste 0 -- -- 100
2019-06-04 01:00:00 14 0 Calma 5 Noroeste 0 -- -- 100
2019-06-04 00:00:00 14.1 3 Este 6 Este 0 -- -- 100
2019-06-03 23:00:00 13.7 3 Sudeste 8 Noroeste 0 -- -- 100
2019-06-03 22:00:00 13.8 6 Noroeste 9 Noroeste 0 -- -- 100
2019-06-03 21:00:00 14.1 4 Noroeste 6 Noroeste 0.2 -- -- 100
2019-06-03 20:00:00 14.2 4 Oeste 13 Noroeste 0.4 -- -- 100
2019-06-03 19:00:00 14.5 7 Noroeste 13 Noroeste 0 -- -- 100
2019-06-03 18:00:00 14.8 7 Noroeste 11 Oeste 0 -- -- 100
2019-06-03 17:00:00 15.6 6 Noroeste 12 Noroeste 0 -- -- 99
2019-06-03 16:00:00 16.4 8 Noroeste 13 Noroeste 0 -- -- 96
2019-06-03 15:00:00 16.3 4 Noroeste 13 Noroeste 0 -- -- 98
2019-06-03 14:00:00 15.9 11 Noroeste 15 Noroeste 0 -- -- 100
2019-06-03 13:00:00 15.8 8 Noroeste 14 Noroeste 0.2 -- -- 100
2019-06-03 12:00:00 15.1 9 Oeste 17 Noroeste 0 -- -- 100
2019-06-03 11:00:00 17.4 9 Noroeste 15 Noroeste 0 -- -- 95
2019-06-03 10:00:00 16.3 6 Noroeste 13 Noroeste 0 -- -- 100
2019-06-03 09:00:00 15 2 Noroeste 8 Oeste 0 -- -- 100
2019-06-03 08:00:00 14.3 4 Noroeste 8 Noroeste 0 -- -- 100
2019-06-03 07:00:00 14.1 0 Calma 8 Noroeste 0 -- -- 100
2019-06-03 06:00:00 14.1 5 Sur 9 Sudeste 0 -- -- 100
2019-06-03 05:00:00 14.2 5 Noroeste 8 Sudeste 0 -- -- 100
2019-06-03 04:00:00 14.2 3 Este 6 Este 0 -- -- 100
2019-06-03 03:00:00 14.3 2 Oeste 11 Sudeste 0 -- -- 100
2019-06-03 02:00:00 14.4 4 Sudeste 9 Noroeste 0 -- -- 100
2019-06-03 01:00:00 14.4 6 Noroeste 13 Noroeste 0 -- -- 100
2019-06-03 00:00:00 14.5 6 Noroeste 12 Noroeste 0 -- -- 100
2019-06-02 23:00:00 14.7 7 Noroeste 14 Noroeste 0 -- -- 100
2019-06-02 22:00:00 15.2 10 Noroeste 20 Noroeste 0 -- -- 96
2019-06-02 21:00:00 16 9 Oeste 17 Noroeste 0 -- -- 90
2019-06-02 20:00:00 17.7 7 Noroeste 13 Noroeste 0 -- -- 79
2019-06-02 19:00:00 18.4 11 Noroeste 24 Noroeste 0 -- -- 74
2019-06-02 18:00:00 19.6 15 Noroeste 22 Noroeste 0 -- -- 68
2019-06-02 17:00:00 21.2 7 Noroeste 14 Noroeste 0 -- -- 72
2019-06-02 16:00:00 21.7 5 Noroeste 14 Noroeste 0 -- -- 78
2019-06-02 15:00:00 20.2 9 Noroeste 16 Noroeste 0 -- -- 83
2019-06-02 14:00:00 19.3 9 Noroeste 17 Noroeste 0 -- -- 85
2019-06-02 13:00:00 20.1 7 Noroeste 15 Oeste 0 -- -- 82
2019-06-02 12:00:00 21.6 3 Nordeste 10 Noroeste 0 -- -- 74
2019-06-02 11:00:00 22.1 2 Nordeste 10 Noroeste 0 -- -- 54
2019-06-02 10:00:00 22 5 Sudoeste 14 Sudoeste 0 -- -- 54
2019-06-02 09:00:00 19.9 7 Este 12 Sur 0 -- -- 57
2019-06-02 08:00:00 16 6 Este 18 Sudoeste 0 -- -- 69
2019-06-02 07:00:00 16.9 6 Sur 13 Sur 0 -- -- 64
2019-06-02 06:00:00 16.5 8 Sur 19 Sudoeste 0 -- -- 66
2019-06-02 05:00:00 17.6 7 Sur 21 Sudoeste 0 -- -- 61
2019-06-02 04:00:00 19.3 3 Norte 9 Este 0 -- -- 52
2019-06-02 03:00:00 19.3 5 Sudeste 9 Sudoeste 0 -- -- 52
2019-06-02 02:00:00 19.9 3 Este 6 Este 0 -- -- 44
2019-06-02 01:00:00 20.4 3 Oeste 4 Noroeste 0 -- -- 43
2019-06-02 00:00:00 20.8 5 Sudeste 7 Sudeste 0 -- -- 39
2019-06-01 23:00:00 21.1 0 Calma 8 Noroeste 0 -- -- 42
2019-06-01 22:00:00 22.3 2 Nordeste 5 Sudeste 0 -- -- 41
2019-06-01 21:00:00 24.3 0 Calma 10 Noroeste 0 -- -- 41
2019-06-01 20:00:00 24 9 Noroeste 15 Noroeste 0 -- -- 48
2019-06-01 19:00:00 23.8 12 Noroeste 27 Noroeste 0 -- -- 47
2019-06-01 18:00:00 23.2 18 Noroeste 26 Noroeste 0 -- -- 52
2019-06-01 17:00:00 25.7 15 Noroeste 26 Noroeste 0 -- -- 51
2019-06-01 16:00:00 26 16 Noroeste 25 Noroeste 0 -- -- 48
2019-06-01 15:00:00 25.6 18 Noroeste 24 Noroeste 0 -- -- 51
2019-06-01 14:00:00 26.8 10 Noroeste 21 Noroeste 0 -- -- 46
2019-06-01 13:00:00 26.4 13 Noroeste 17 Norte 0 -- -- 51
2019-06-01 12:00:00 25.8 5 Noroeste 9 Noroeste 0 -- -- 50
2019-06-01 11:00:00 23.9 5 Noroeste 9 Sudeste 0 -- -- 51
2019-06-01 10:00:00 23.3 5 Sur 8 Sur 0 -- -- 48
2019-06-01 09:00:00 21 5 Noroeste 9 Sudoeste 0 -- -- 50
2019-06-01 08:00:00 20.1 4 Nordeste 10 Sudoeste 0 -- -- 53
2019-06-01 07:00:00 19.8 2 Noroeste 7 Norte 0 -- -- 48
2019-06-01 06:00:00 20 3 Oeste 6 Sur 0 -- -- 47
2019-06-01 05:00:00 20.8 3 Noroeste 6 Sudoeste 0 -- -- 45
2019-06-01 04:00:00 21.2 2 Sur 10 Este 0 -- -- 44
2019-06-01 03:00:00 21.7 5 Sur 6 Sur 0 -- -- 44
2019-06-01 02:00:00 22.5 2 Este 6 Este 0 -- -- 43
2019-06-01 01:00:00 24.6 4 Este 8 Este 0 -- -- 40
2019-06-01 00:00:00 24.5 5 Este 8 Este 0 -- -- 41
2019-05-31 23:00:00 24.5 3 Sudeste 5 Sudeste 0 -- -- 42
2019-05-31 22:00:00 25 5 Sudeste 7 Sudeste 0 -- -- 46
2019-05-31 21:00:00 27.2 6 Noroeste 18 Este 0 -- -- 46
2019-05-31 20:00:00 29.2 11 Este 21 Este 0 -- -- 35
2019-05-31 19:00:00 29.6 14 Este 23 Este 0 -- -- 33
2019-05-31 18:00:00 30.8 11 Nordeste 24 Nordeste 0 -- -- 34
2019-05-31 17:00:00 30.8 8 Norte 19 Noroeste 0 -- -- 41
2019-05-31 16:00:00 29.9 10 Noroeste 18 Noroeste 0 -- -- 51
2019-05-31 15:00:00 28.7 8 Noroeste 15 Noroeste 0 -- -- 63
2019-05-31 14:00:00 28 8 Noroeste 11 Noroeste 0 -- -- 57
2019-05-31 13:00:00 27.6 5 Noroeste 11 Noroeste 0 -- -- 54
2019-05-31 12:00:00 27.3 3 Noroeste 10 Sudeste 0 -- -- 52
2019-05-31 11:00:00 25.5 4 Sur 10 Sudoeste 0 -- -- 51
2019-05-31 10:00:00 23.5 0 Calma 13 Sudoeste 0 -- -- 59
2019-05-31 09:00:00 21.5 4 Sur 9 Sudoeste 0 -- -- 58
2019-05-31 08:00:00 20 0 Calma 8 Sur 0 -- -- 55
2019-05-31 07:00:00 18.5 4 Sudeste 6 Sudoeste 0 -- -- 60
2019-05-31 06:00:00 18.2 5 Este 7 Este 0 -- -- 62
2019-05-31 05:00:00 18.3 0 Calma 11 Sudoeste 0 -- -- 64
2019-05-31 04:00:00 18.1 5 Sudoeste 11 Sudoeste 0 -- -- 64
2019-05-31 03:00:00 19.3 0 Calma 7 Este 0 -- -- 60
2019-05-31 02:00:00 20.4 3 Este 12 Sudeste 0 -- -- 56
2019-05-31 01:00:00 20.3 5 Sudeste 9 Este 0 -- -- 58
2019-05-31 00:00:00 19.7 0 Calma 8 Sudeste 0 -- -- 62
2019-05-30 23:00:00 21 7 Sudeste 15 Sudeste 0 -- -- 57
2019-05-30 22:00:00 20.4 0 Calma 6 Noroeste 0 -- -- 66
2019-05-30 21:00:00 21.9 0 Calma 12 Oeste 0 -- -- 67
2019-05-30 20:00:00 24.2 6 Noroeste 15 Este 0 -- -- 62
2019-05-30 19:00:00 24.4 7 Noroeste 13 Noroeste 0 -- -- 64
2019-05-30 18:00:00 25.2 6 Noroeste 14 Oeste 0 -- -- 67
2019-05-30 17:00:00 24.1 10 Noroeste 17 Noroeste 0 -- -- 68
2019-05-30 16:00:00 22.9 10 Noroeste 17 Noroeste 0 -- -- 72
2019-05-30 15:00:00 22.3 10 Noroeste 16 Noroeste 0 -- -- 73
2019-05-30 14:00:00 22.7 11 Noroeste 19 Oeste 0 -- -- 78
2019-05-30 13:00:00 21.5 10 Noroeste 14 Noroeste 0 -- -- 78
2019-05-30 12:00:00 21.2 6 Noroeste 13 Noroeste 0 -- -- 74
2019-05-30 11:00:00 19.5 2 Noroeste 6 Noroeste 0 -- -- 71
2019-05-30 10:00:00 18.3 3 Noroeste 6 Sudoeste 0 -- -- 74
2019-05-30 09:00:00 18.2 2 Sudeste 5 Este 0 -- -- 72
2019-05-30 08:00:00 14.8 4 Norte 6 Norte 0 -- -- 81
2019-05-30 07:00:00 13.4 5 Noroeste 10 Sudoeste 0 -- -- 87
2019-05-30 06:00:00 13.3 0 Calma 8 Sur 0 -- -- 88
2019-05-30 05:00:00 13.4 7 Sudoeste 12 Sudoeste 0 -- -- 89
2019-05-30 04:00:00 12.5 5 Sudeste 8 Noroeste 0 -- -- 92
2019-05-30 03:00:00 13.5 0 Calma 3 Noroeste 0 -- -- 87
2019-05-30 02:00:00 13.8 2 Sudeste 4 Noroeste 0 -- -- 87
2019-05-30 01:00:00 13.5 2 Noroeste 9 Sur 0 -- -- 87
2019-05-30 00:00:00 12.9 7 Sudoeste 9 Sudoeste 0 -- -- 88
2019-05-29 23:00:00 12.5 2 Sudeste 6 Oeste 0 -- -- 89
2019-05-29 22:00:00 14 0 Calma 10 Oeste 0 -- -- 80
2019-05-29 21:00:00 16.5 4 Oeste 14 Noroeste 0 -- -- 73
2019-05-29 20:00:00 17.7 7 Noroeste 13 Noroeste 0 -- -- 75
2019-05-29 19:00:00 18.6 5 Noroeste 14 Noroeste 0 -- -- 73
2019-05-29 18:00:00 18.8 9 Noroeste 17 Noroeste 0 -- -- 73
2019-05-29 17:00:00 18.9 8 Noroeste 19 Oeste 0 -- -- 78
2019-05-29 16:00:00 18.9 12 Noroeste 19 Oeste 0 -- -- 74
2019-05-29 15:00:00 19.9 5 Noroeste 20 Sudeste 0 -- -- 74
2019-05-29 14:00:00 19 7 Sudeste 17 Este 0 -- -- 75
2019-05-29 13:00:00 18.5 5 Noroeste 16 Noroeste 0 -- -- 79
2019-05-29 12:00:00 16.8 7 Noroeste 18 Oeste 0 -- -- 81
2019-05-29 11:00:00 14.2 10 Noroeste 16 Noroeste 0 -- -- 85
2019-05-29 10:00:00 12.9 3 Noroeste 8 Noroeste 0 -- -- 82
2019-05-29 09:00:00 12.8 0 Calma 6 Sur 0 -- -- 76
2019-05-29 08:00:00 10.6 3 Noroeste 6 Sudoeste 0 -- -- 79
2019-05-29 07:00:00 9.7 0 Calma 4 Sudeste 0 -- -- 81
2019-05-29 06:00:00 9.5 5 Sudeste 10 Noroeste 0 -- -- 84
2019-05-29 05:00:00 9.6 6 Sur 9 Sur 0 -- -- 83
2019-05-29 04:00:00 10.4 3 Nordeste 9 Norte 0 -- -- 75
2019-05-29 03:00:00 9.8 5 Sudeste 7 Sudeste 0 -- -- 82
2019-05-29 02:00:00 9.7 0 Calma 6 Este 0 -- -- 91
2019-05-29 01:00:00 9.6 2 Sur 8 Este 0 -- -- 90
2019-05-29 00:00:00 9.9 4 Sudeste 17 Este 0 -- -- 92
2019-05-28 23:00:00 10.2 9 Este 14 Este 0 -- -- 91
2019-05-28 22:00:00 10.8 10 Este 18 Noroeste 0 -- -- 87
2019-05-28 21:00:00 13.3 10 Norte 28 Noroeste 0 -- -- 83
2019-05-28 20:00:00 14.3 20 Noroeste 30 Noroeste 0 -- -- 78
2019-05-28 19:00:00 14.4 21 Noroeste 33 Noroeste 0 -- -- 76
2019-05-28 18:00:00 14.8 21 Noroeste 30 Noroeste 0 -- -- 77
2019-05-28 17:00:00 15.3 17 Noroeste 34 Noroeste 0 -- -- 80
2019-05-28 16:00:00 15.8 17 Noroeste 29 Noroeste 0 -- -- 75
2019-05-28 15:00:00 14.4 23 Noroeste 31 Noroeste 0 -- -- 80
2019-05-28 14:00:00 14 17 Norte 32 Noroeste 0 -- -- 80
2019-05-28 13:00:00 14.1 19 Noroeste 27 Noroeste 0 -- -- 88
2019-05-28 12:00:00 13.5 8 Noroeste 16 Noroeste 0 -- -- 83
2019-05-28 11:00:00 12.2 4 Oeste 10 Noroeste 0 -- -- 90
2019-05-28 10:00:00 12.4 2 Noroeste 5 Sudoeste 0 -- -- 90
2019-05-28 09:00:00 10.5 2 Sudeste 4 Sudeste 0 -- -- 93
2019-05-28 08:00:00 9.5 0 Calma 5 Sur 0 -- -- 95
2019-05-28 07:00:00 9.3 2 Sur 4 Sur 0 -- -- 95
2019-05-28 06:00:00 9.3 2 Noroeste 5 Este 0 -- -- 94
2019-05-28 05:00:00 9.1 0 Calma 4 Oeste 0 -- -- 95
2019-05-28 04:00:00 9.3 0 Calma 8 Este 0 -- -- 91
2019-05-28 03:00:00 9.5 5 Nordeste 8 Nordeste 0 -- -- 93
2019-05-28 02:00:00 9.8 3 Norte 9 Norte 0 -- -- 94
2019-05-28 01:00:00 10.2 5 Norte 17 Noroeste 0 -- -- 95
2019-05-28 00:00:00 10.5 2 Norte 13 Norte 0 -- -- 95
2019-05-27 23:00:00 10.7 7 Norte 15 Noroeste 0 -- -- 93
2019-05-27 22:00:00 10.7 10 Noroeste 15 Noroeste 0 -- -- 97
2019-05-27 21:00:00 11.1 6 Noroeste 18 Noroeste 0 -- -- 95
2019-05-27 20:00:00 11.2 14 Noroeste 22 Noroeste 0 -- -- 96
2019-05-27 19:00:00 12.1 11 Noroeste 19 Norte 0 -- -- 96
2019-05-27 18:00:00 12.4 12 Noroeste 27 Noroeste 0 -- -- 95
2019-05-27 17:00:00 14.4 14 Noroeste 26 Noroeste 0 -- -- 95
2019-05-27 16:00:00 13.4 13 Noroeste 22 Noroeste 0 -- -- 100
2019-05-27 15:00:00 12.6 15 Noroeste 28 Noroeste 0.4 -- -- 100
2019-05-27 14:00:00 12.5 10 Noroeste 24 Noroeste 0.6 -- -- 100
2019-05-27 13:00:00 12.3 9 Noroeste 22 Noroeste 0.4 -- -- 100
2019-05-27 12:00:00 12.6 17 Noroeste 32 Noroeste 0.6 -- -- 100
2019-05-27 11:00:00 12.9 11 Noroeste 18 Noroeste 0.6 -- -- 100
2019-05-27 10:00:00 12.7 4 Noroeste 6 Noroeste 1.2 -- -- 100
2019-05-27 09:00:00 11.7 2 Noroeste 4 Noroeste 0.8 -- -- 100
2019-05-27 08:00:00 11.4 2 Noroeste 3 Noroeste 0.6 -- -- 100
2019-05-27 07:00:00 11.1 0 Calma 5 Sur 0.4 -- -- 100
2019-05-27 06:00:00 11.4 3 Este 9 Este 0 -- -- 97
2019-05-27 05:00:00 10.9 5 Sur 9 Sudeste 0 -- -- 97
2019-05-27 04:00:00 10.5 5 Noroeste 8 Noroeste 0 -- -- 99
2019-05-27 03:00:00 10.5 3 Sudeste 12 Sudeste 0 -- -- 99
2019-05-27 02:00:00 10.7 3 Sur 8 Oeste 0 -- -- 99
2019-05-27 01:00:00 10.8 2 Sur 6 Sudeste 0 -- -- 97
2019-05-27 00:00:00 10.7 5 Noroeste 7 Noroeste 0 -- -- 98